23 maggio 2022

Tempo Codice Tempo metereologico Temp. Vista Nuvole Vento METAR/SPECI
02:00
V
11 °C 24 km 3.500 ft 350°   350° 10 kt METAR CYUL 230600Z 35010KT 15SM BKN035 11/05 A3020 RMK SC7 SLP230
01:00
V
12 °C 24 km 4.400 ft 310°   310° 10 15 kt METAR CYUL 230500Z 31010G15KT 15SM BKN044 12/06 A3019 RMK SC7 SLP226
00:00
V
12 °C 24 km 4.500 ft 300°   300° 7 kt METAR CYUL 230400Z 30007KT 15SM BKN045 12/08 A3017 RMK SC6 SLP219

22 maggio 2022

Tempo Codice Tempo metereologico Temp. Vista Nuvole Vento METAR/SPECI
23:00
V
13 °C 24 km 3.800 ft 310°   310° 11 kt METAR CYUL 230300Z 31011KT 15SM BKN038 13/07 A3014 RMK SC7 SLP209
22:00
V
13 °C 24 km 25.000 ft 300°   300° 9 kt METAR CYUL 230200Z 30009KT 15SM FEW130 BKN250 13/08 A3011 RMK AC2CI4 SLP200
21:00
V
14 °C 24 km 15.000 ft 300°   300° 11 17 kt METAR CYUL 230100Z 30011G17KT 15SM FEW020 SCT040 BKN150 BKN250 14/10 A3008 RMK SC1SC2AC3CI1 PRESRR SLP188
20:48
V
14 °C 24 km 15.000 ft 300°   300° 13 19 kt METAR CYUL 230048Z 30013G19KT 15SM FEW020 SCT040 BKN150 BKN250 14/10 A3006 RMK SC1SC3AC2CI1 SLP183
20:00
M
14 °C 24 km 2.000 ft 280°   280° 12 18 kt METAR CYUL 230000Z 28012G18KT 15SM -SHRA FEW013 BKN020 BKN032 OVC100 14/13 A3003 RMK SC2SC3SC2AC1 SLP173
19:44
M
15 °C 19 km 1.800 ft 280°   280° 12 17 kt METAR CYUL 222344Z 28012G17KT 12SM -SHRA SCT013 BKN018 OVC030 15/13 A3003 RMK SC3SC3SC2 CVCTV CLD EMBD SLP171
19:00
M
15 °C 24 km 1.800 ft 260°   260° 15 kt METAR CYUL 222300Z 26015KT 15SM SCT011 BKN018 OVC035 15/13 A3001 RMK SC3SC3SC2 SLP166
18:46
M
15 °C 24 km 2.000 ft 260°   260° 15 kt METAR CYUL 222246Z 26015KT 15SM FEW011 BKN020 BKN037 OVC060 15/13 A3000 RMK SC2SC3SC2SC1 PRESRR SLP162
18:00
V
15 °C 24 km 3.200 ft 220°   220° 14 kt METAR CYUL 222200Z 22014KT 15SM -SHRA FEW013 BKN032 BKN060 OVC100 15/14 A2997 RMK SC2SC4SC1AS1 CVCTV CLD EMBD PRESRR SLP152
17:34
V
16 °C 24 km 4.000 ft 240°   240° 8 kt METAR CYUL 222134Z 24008KT 15SM -SHRA BKN040 OVC060 16/13 A2995 RMK SC7SC1 CVCTV CLD EMBD SLP144 DENSITY ALT 300FT
17:00
V
16 °C 24 km 3.500 ft 290°   290° 9 17 kt METAR CYUL 222100Z 29009G17KT 15SM BKN035 OVC100 16/12 A2994 RMK SC6AC2 SLP141 DENSITY ALT 300FT
16:43
V
16 °C 24 km 3.200 ft 300°   300° 10 18 kt METAR CYUL 222043Z 30010G18KT 15SM BKN032 BKN090 OVC130 16/12 A2993 RMK SC5AC2AS1 SLP138 DENSITY ALT 300FT
16:00
V
17 °C 24 km 5.200 ft 310°   310° 13 20 kt METAR CYUL 222000Z 31013G20KT 15SM -SHRA FEW035 BKN052 BKN100 OVC150 17/12 A2991 RMK CU1SC4AC2AS1 SLP129 DENSITY ALT 500FT
15:18
V
20 °C 24 km 6.000 ft 290°   290° 16 27 kt METAR CYUL 221918Z 29016G27KT 15SM FEW030 BKN060 BKN100 OVC170 20/14 A2987 RMK SC1SC4AC2AS1 WSHFT 1900 PRESRR SLP117 DENSITY ALT 900FT
15:00
V
25 °C 24 km 6.000 ft 250°   250° 17 22 kt METAR CYUL 221900Z 25017G22KT 15SM FEW035 BKN060 BKN120 OVC180 25/18 A2985 RMK SC2SC3AC2AS1 SLP109 DENSITY ALT 1400FT
14:00
V
25 °C 24 km 10.000 ft 230°   230° 13 kt METAR CYUL 221800Z 23013KT 15SM FEW060 BKN100 BKN170 OVC240 25/18 A2985 RMK SC1AC4AC1CI2 SLP109 DENSITY ALT 1400FT
13:00
V
25 °C 24 km 25.000 ft 220°   220° 13 18 kt METAR CYUL 221700Z 22013G18KT 15SM FEW050 SCT120 SCT160 BKN250 25/18 A2986 RMK CU1AC3AC1CI3 CU TR SLP114 DENSITY ALT 1400FT
12:00
V
24 °C 24 km 25.000 ft 220°   220° 13 kt METAR CYUL 221600Z 22013KT 15SM FEW050 FEW130 FEW210 BKN250 24/16 A2988 RMK SC1AC1CI1CI4 SC TR AC TR SLP119 DENSITY ALT 1300FT
11:00
V
22 °C 24 km 25.000 ft 210°   210° 13 19 kt METAR CYUL 221500Z 21013G19KT 15SM FEW030 FEW120 FEW170 BKN250 22/16 A2991 RMK CF1AC1AC1CI4 CF TR AC TR SLP130 DENSITY ALT 1000FT
10:00
V
21 °C 24 km 25.000 ft 210°   210° 12 kt METAR CYUL 221400Z 21012KT 15SM FEW030 FEW130 BKN250 21/17 A2992 RMK CU1AC2CI5 CU TR SLP135 DENSITY ALT 900FT
09:00
V
21 °C 24 km 25.000 ft 240°   240° 12 18 kt METAR CYUL 221300Z 24012G18KT 15SM FEW015 SCT030 SCT140 BKN250 21/17 A2994 RMK CF1SC2AC1CI1 SLP140 DENSITY ALT 900FT
08:00
V
19 °C 24 km 15.000 ft 200°   200° 8 kt METAR CYUL 221200Z 20008KT 15SM FEW015 SCT030 BKN150 19/18 A2992 RMK CF1SC3AC4 CF TR SLP135 DENSITY ALT 700FT
07:00
V
19 °C 24 km 12.000 ft 210°   210° 6 kt METAR CYUL 221100Z 21006KT 15SM FEW030 OVC120 19/18 A2992 RMK SC1AC7 SLP134 DENSITY ALT 700FT
06:00
V
19 °C 48 km 12.000 ft 200°   200° 6 kt METAR CYUL 221000Z 20006KT 30SM FEW035 OVC120 19/17 A2992 RMK SC1AC7 SLP132 DENSITY ALT 600FT
05:11
V
19 °C 24 km 3.500 ft 210°   210° 7 kt METAR CYUL 220911Z 21007KT 15SM SCT009 BKN035 OVC120 19/17 A2993 RMK SF3SC4AC1 SLP138 DENSITY ALT 600FT
05:00
I
19 °C 24 km 900 ft 200°   200° 7 kt METAR CYUL 220900Z 20007KT 15SM BKN009 OVC020 19/17 A2993 RMK SF5SC3 SLP137 DENSITY ALT 600FT
04:34
M
19 °C 24 km 1.700 ft 140°   140° 3 kt METAR CYUL 220834Z 14003KT 15SM FEW008 BKN017 OVC130 19/17 A2992 RMK SF2SC5AC1 SLP135 DENSITY ALT 600FT
04:00
V
19 °C 24 km 3.800 ft 140°   140° 5 kt METAR CYUL 220800Z 14005KT 130V200 15SM FEW018 BKN038 BKN180 19/17 A2993 RMK SC2SC3AC2 PRESRR SLP136 DENSITY ALT 600FT
03:00
V
19 °C 24 km 18.000 ft 260°   260° 5 kt METAR CYUL 220700Z 26005KT 15SM BKN180 OVC250 19/17 A2992 RMK AC6CI2 SLP135 DENSITY ALT 600FT
02:00
V
20 °C 24 km 21.000 ft 250°   250° 6 kt METAR CYUL 220600Z 25006KT 15SM OVC210 20/17 A2996 RMK CS8 SLP147 DENSITY ALT 700FT
01:00
V
20 °C 24 km 9.000 ft 270°   270° 5 kt METAR CYUL 220500Z 27005KT 15SM SCT070 BKN090 20/16 A2995 RMK AC4AC2 DIST LTNGC SE SLP145 DENSITY ALT 700FT
00:00
V
20 °C 24 km - 260°   260° 7 kt METAR CYUL 220400Z 26007KT 15SM FEW025 20/16 A2995 RMK CF1 CF TR DIST LTNGC S SE SLP143 DENSITY ALT 700FT

21 maggio 2022

Tempo Codice Tempo metereologico Temp. Vista Nuvole Vento METAR/SPECI
23:00
V
21 °C 24 km - 250°   250° 7 kt METAR CYUL 220300Z 25007KT 15SM SKC 21/16 A2993 RMK SLP136 DENSITY ALT 900FT
22:00
V
21 °C 24 km - 270°   270° 4 kt METAR CYUL 220200Z 27004KT 15SM FEW090 21/15 A2992 RMK AC1 AC TR SLP132 DENSITY ALT 900FT
21:00
V
21 °C 24 km - 260°   260° 6 kt METAR CYUL 220100Z 26006KT 15SM FEW180 SCT250 21/16 A2990 RMK AC2CI2 SLP126 DENSITY ALT 1000FT
20:00
V
23 °C 24 km 25.000 ft 260°   260° 10 17 kt METAR CYUL 220000Z 26010G17KT 15SM FEW050 FEW120 FEW170 OVC250 23/15 A2988 RMK SC1AC1AC1CI7 SC TR AC TR SLP120 DENSITY ALT 1100FT
19:00
V
24 °C 24 km 25.000 ft 260°   260° 19 25 kt METAR CYUL 212300Z 26019G25KT 15SM FEW100 SCT180 OVC250 24/14 A2986 RMK AC1AC3CI5 AC TR SLP115 DENSITY ALT 1300FT
18:00
V
24 °C 24 km 18.000 ft 290°   290° 19 24 kt METAR CYUL 212200Z 29019G24KT 15SM FEW015 FEW045 SCT100 OVC180 24/16 A2985 RMK SC1CU1AC3AS4 SC TR PRESRR SLP110 DENSITY ALT 1300FT
17:32
V
26 °C 19 km 10.000 ft 290°   290° 13 33 kt METAR CYUL 212132Z 29013G33KT 230V310 12SM -SHRA FEW022 SCT045 BKN100 OVC180 26/16 A2984 RMK CU1SC2AC3AS2 PRESFR SLP105 DENSITY ALT 1500FT
17:00
V
29 °C 24 km 14.000 ft 240°   240° 20 27 kt METAR CYUL 212100Z 24020G27KT 15SM FEW050 SCT100 BKN140 OVC240 29/19 A2984 RMK CU1AC3AC2CI3 CU TR SLP108 DENSITY ALT 1900FT
16:00
V
31 °C 48 km 25.000 ft 220°   220° 17 24 kt METAR CYUL 212000Z 22017G24KT 30SM FEW050 FEW080 SCT140 OVC250 31/20 A2980 RMK CU1AC1AC2CI4 CU TR SLP092 DENSITY ALT 2200FT
15:00
V
30 °C 24 km 25.000 ft 230°   230° 14 19 kt METAR CYUL 211900Z 23014G19KT 15SM FEW045 FEW075 SCT110 BKN250 30/20 A2979 RMK CU1AC1AC2CI4 CU TR SLP091 DENSITY ALT 2000FT
14:00
V
31 °C 24 km 25.000 ft 220°   220° 14 19 kt METAR CYUL 211800Z 22014G19KT 15SM FEW050 FEW080 FEW150 BKN250 31/21 A2980 RMK SC1AC1AC1CI6 SC TR AC TR SLP093 DENSITY ALT 2100FT
13:00
V
29 °C 24 km 24.000 ft 220°   220° 13 kt METAR CYUL 211700Z 22013KT 15SM FEW040 FEW180 BKN240 29/20 A2980 RMK SC1AC1CI6 SC TR SLP092 DENSITY ALT 1900FT
12:00
V
29 °C 24 km - 220°   220° 12 kt METAR CYUL 211600Z 22012KT 15SM FEW040 FEW100 FEW180 SCT250 29/21 A2980 RMK SC1AC1AC1CI2 SC TR AC TR SLP092 DENSITY ALT 1900FT
11:00
V
28 °C 24 km - 220°   220° 17 kt METAR CYUL 211500Z 22017KT 15SM FEW040 FEW100 FEW250 28/20 A2980 RMK SC1AC1CI1 SC TR AC TR SLP093 DENSITY ALT 1800FT
10:00
V
26 °C 24 km - 200°   200° 10 kt METAR CYUL 211400Z 20010KT 15SM FEW035 FEW120 FEW250 26/20 A2981 RMK SC1AC1CI2 SC TR AC TR SLP096 DENSITY ALT 1600FT
09:00
V
24 °C 24 km 22.000 ft 160°   160° 8 kt METAR CYUL 211300Z 16008KT 15SM FEW100 BKN220 24/19 A2981 RMK AC2CI3 SLP098 DENSITY ALT 1300FT
08:00
V
22 °C 24 km 22.000 ft 150°   150° 9 kt METAR CYUL 211200Z 15009KT 15SM SCT055 OVC220 22/18 A2981 RMK SC3CI5 SLP097 DENSITY ALT 1100FT
07:00
V
20 °C 24 km 12.000 ft 140°   140° 8 kt METAR CYUL 211100Z 14008KT 15SM SCT062 BKN120 BKN250 20/17 A2979 RMK SC3AC3CI1 SLP091 DENSITY ALT 900FT
06:00
V
19 °C 24 km 5.600 ft 150°   150° 10 kt METAR CYUL 211000Z 15010KT 15SM BKN056 OVC130 19/16 A2977 RMK SC6AC2 SLP084 DENSITY ALT 900FT
05:00
V
19 °C 24 km 25.000 ft 150°   150° 11 kt METAR CYUL 210900Z 15011KT 15SM SCT065 BKN250 19/16 A2975 RMK SC4CI2 SLP075 DENSITY ALT 800FT
04:00
V
20 °C 24 km 5.800 ft 160°   160° 14 kt METAR CYUL 210800Z 16014KT 15SM OVC058 20/16 A2973 RMK SC8 SLP069 DENSITY ALT 900FT
03:00
V
20 °C 24 km 6.200 ft 160°   160° 11 kt METAR CYUL 210700Z 16011KT 15SM OVC062 20/16 A2973 RMK SC8 SLP070 DENSITY ALT 1000FT
02:00
V
20 °C 24 km 25.000 ft 160°   160° 15 kt METAR CYUL 210600Z 16015KT 15SM OVC250 20/15 A2972 RMK CS8 SLP066 DENSITY ALT 1000FT
01:00
V
21 °C 24 km 22.000 ft 160°   160° 11 kt METAR CYUL 210500Z 16011KT 15SM OVC220 21/15 A2974 RMK CS8 CC ASOCTD SLP074 DENSITY ALT 1100FT
Dati più vecchi

Scarica la nostra applicazione

Facile accesso a tutte le previsioni dell'aviazione sul tuo cellulare e tablet.
Con molte caratteristiche non disponibili sul sito web, come il supporto offline e una lista personale di aeroporti.

Noi e le terze parti seguiamo il tuo comportamento in internet sul nostro sito web con i cookie. Se continui, riteniamo che tu sia d'accordo con la nostra politica sui cookie. Per saperne di più